sensor_id;sensor_type;location;lat;lon;timestamp;temperature;humidity
20066;DHT22;10193;48.884;9.182;2022-11-23T00:01:20;7.10;70.70
20066;DHT22;10193;48.884;9.182;2022-11-23T00:03:49;7.10;70.80
20066;DHT22;10193;48.884;9.182;2022-11-23T00:06:17;7.10;70.90
20066;DHT22;10193;48.884;9.182;2022-11-23T00:08:45;7.10;70.90
20066;DHT22;10193;48.884;9.182;2022-11-23T00:11:12;7.00;70.70
20066;DHT22;10193;48.884;9.182;2022-11-23T00:13:40;7.10;70.60
20066;DHT22;10193;48.884;9.182;2022-11-23T00:16:07;7.00;70.40
20066;DHT22;10193;48.884;9.182;2022-11-23T00:18:35;6.90;70.40
20066;DHT22;10193;48.884;9.182;2022-11-23T00:21:05;6.90;70.60
20066;DHT22;10193;48.884;9.182;2022-11-23T00:23:32;6.80;70.70
20066;DHT22;10193;48.884;9.182;2022-11-23T00:25:58;6.80;70.70
20066;DHT22;10193;48.884;9.182;2022-11-23T00:28:25;6.80;70.90
20066;DHT22;10193;48.884;9.182;2022-11-23T00:30:52;6.80;71.00
20066;DHT22;10193;48.884;9.182;2022-11-23T00:33:18;6.80;71.10
20066;DHT22;10193;48.884;9.182;2022-11-23T00:35:46;6.70;71.10
20066;DHT22;10193;48.884;9.182;2022-11-23T00:38:13;6.70;71.20
20066;DHT22;10193;48.884;9.182;2022-11-23T00:40:40;6.70;71.30
20066;DHT22;10193;48.884;9.182;2022-11-23T00:43:06;6.70;71.50
20066;DHT22;10193;48.884;9.182;2022-11-23T00:45:33;6.70;71.80
20066;DHT22;10193;48.884;9.182;2022-11-23T00:47:59;6.70;72.90
20066;DHT22;10193;48.884;9.182;2022-11-23T00:50:26;6.70;72.30
20066;DHT22;10193;48.884;9.182;2022-11-23T00:52:54;6.70;73.30
20066;DHT22;10193;48.884;9.182;2022-11-23T00:55:21;6.80;72.70
20066;DHT22;10193;48.884;9.182;2022-11-23T00:57:48;6.80;72.90
20066;DHT22;10193;48.884;9.182;2022-11-23T01:00:16;6.80;73.10
20066;DHT22;10193;48.884;9.182;2022-11-23T01:02:43;6.90;73.30
20066;DHT22;10193;48.884;9.182;2022-11-23T01:05:09;6.90;73.30
20066;DHT22;10193;48.884;9.182;2022-11-23T01:07:36;7.00;73.50
20066;DHT22;10193;48.884;9.182;2022-11-23T01:10:05;7.00;73.60
20066;DHT22;10193;48.884;9.182;2022-11-23T01:12:32;7.10;73.70
20066;DHT22;10193;48.884;9.182;2022-11-23T01:14:59;7.10;73.70
20066;DHT22;10193;48.884;9.182;2022-11-23T01:17:26;7.20;73.60
20066;DHT22;10193;48.884;9.182;2022-11-23T01:19:53;7.20;73.50
20066;DHT22;10193;48.884;9.182;2022-11-23T01:22:19;7.30;73.40
20066;DHT22;10193;48.884;9.182;2022-11-23T01:24:48;7.30;73.30
20066;DHT22;10193;48.884;9.182;2022-11-23T01:27:16;7.30;73.10
20066;DHT22;10193;48.884;9.182;2022-11-23T01:29:43;7.30;72.90
20066;DHT22;10193;48.884;9.182;2022-11-23T01:32:09;7.40;73.60
20066;DHT22;10193;48.884;9.182;2022-11-23T01:34:36;7.40;72.50
20066;DHT22;10193;48.884;9.182;2022-11-23T01:37:03;7.40;72.50
20066;DHT22;10193;48.884;9.182;2022-11-23T01:39:29;7.40;72.30
20066;DHT22;10193;48.884;9.182;2022-11-23T01:41:56;7.30;72.00
20066;DHT22;10193;48.884;9.182;2022-11-23T01:44:26;7.30;71.80
20066;DHT22;10193;48.884;9.182;2022-11-23T01:46:54;7.30;71.80
20066;DHT22;10193;48.884;9.182;2022-11-23T01:49:23;7.30;71.80
20066;DHT22;10193;48.884;9.182;2022-11-23T01:51:52;7.30;71.80
20066;DHT22;10193;48.884;9.182;2022-11-23T01:54:23;7.30;71.80
20066;DHT22;10193;48.884;9.182;2022-11-23T01:56:54;7.20;71.60
20066;DHT22;10193;48.884;9.182;2022-11-23T01:59:24;7.20;71.60
20066;DHT22;10193;48.884;9.182;2022-11-23T02:01:51;7.10;71.50
20066;DHT22;10193;48.884;9.182;2022-11-23T02:04:22;7.10;71.50
20066;DHT22;10193;48.884;9.182;2022-11-23T02:06:49;7.00;71.50
20066;DHT22;10193;48.884;9.182;2022-11-23T02:09:17;7.00;71.60
20066;DHT22;10193;48.884;9.182;2022-11-23T02:11:45;7.00;71.80
20066;DHT22;10193;48.884;9.182;2022-11-23T02:14:12;7.00;71.80
20066;DHT22;10193;48.884;9.182;2022-11-23T02:16:40;6.90;71.80
20066;DHT22;10193;48.884;9.182;2022-11-23T02:19:13;6.90;72.00
20066;DHT22;10193;48.884;9.182;2022-11-23T02:21:42;6.80;72.00
20066;DHT22;10193;48.884;9.182;2022-11-23T02:24:15;6.90;72.30
20066;DHT22;10193;48.884;9.182;2022-11-23T02:26:44;6.90;72.40
20066;DHT22;10193;48.884;9.182;2022-11-23T02:29:15;6.80;72.50
20066;DHT22;10193;48.884;9.182;2022-11-23T02:31:42;6.80;72.80
20066;DHT22;10193;48.884;9.182;2022-11-23T02:34:09;6.80;72.90
20066;DHT22;10193;48.884;9.182;2022-11-23T02:36:38;6.90;73.10
20066;DHT22;10193;48.884;9.182;2022-11-23T02:39:09;6.90;73.20
20066;DHT22;10193;48.884;9.182;2022-11-23T02:41:41;6.90;73.10
20066;DHT22;10193;48.884;9.182;2022-11-23T02:44:17;6.90;73.00
20066;DHT22;10193;48.884;9.182;2022-11-23T02:46:46;6.90;72.90
20066;DHT22;10193;48.884;9.182;2022-11-23T02:49:13;6.90;72.80
20066;DHT22;10193;48.884;9.182;2022-11-23T02:51:40;6.90;72.70
20066;DHT22;10193;48.884;9.182;2022-11-23T02:54:06;7.00;72.70
20066;DHT22;10193;48.884;9.182;2022-11-23T02:56:33;6.90;72.60
20066;DHT22;10193;48.884;9.182;2022-11-23T02:58:59;6.90;72.60
20066;DHT22;10193;48.884;9.182;2022-11-23T03:01:28;6.90;72.50
20066;DHT22;10193;48.884;9.182;2022-11-23T03:03:55;6.90;72.50
20066;DHT22;10193;48.884;9.182;2022-11-23T03:06:22;6.90;72.40
20066;DHT22;10193;48.884;9.182;2022-11-23T03:08:48;6.90;72.40
20066;DHT22;10193;48.884;9.182;2022-11-23T03:11:15;6.90;72.30
20066;DHT22;10193;48.884;9.182;2022-11-23T03:13:42;6.90;72.40
20066;DHT22;10193;48.884;9.182;2022-11-23T03:16:09;6.80;72.40
20066;DHT22;10193;48.884;9.182;2022-11-23T03:18:37;6.80;72.40
20066;DHT22;10193;48.884;9.182;2022-11-23T03:21:05;6.80;72.40
20066;DHT22;10193;48.884;9.182;2022-11-23T03:23:33;6.80;72.60
20066;DHT22;10193;48.884;9.182;2022-11-23T03:26:00;6.80;72.80
20066;DHT22;10193;48.884;9.182;2022-11-23T03:28:27;6.80;73.00
20066;DHT22;10193;48.884;9.182;2022-11-23T03:30:54;6.80;73.10
20066;DHT22;10193;48.884;9.182;2022-11-23T03:33:21;6.80;73.10
20066;DHT22;10193;48.884;9.182;2022-11-23T03:35:49;6.80;73.20
20066;DHT22;10193;48.884;9.182;2022-11-23T03:38:16;6.80;73.30
20066;DHT22;10193;48.884;9.182;2022-11-23T03:40:43;6.80;73.40
20066;DHT22;10193;48.884;9.182;2022-11-23T03:43:10;6.80;73.40
20066;DHT22;10193;48.884;9.182;2022-11-23T03:45:36;6.90;73.40
20066;DHT22;10193;48.884;9.182;2022-11-23T03:48:04;6.90;73.30
20066;DHT22;10193;48.884;9.182;2022-11-23T03:50:30;6.90;73.30
20066;DHT22;10193;48.884;9.182;2022-11-23T03:52:59;6.90;73.40
20066;DHT22;10193;48.884;9.182;2022-11-23T03:55:25;6.90;73.40
20066;DHT22;10193;48.884;9.182;2022-11-23T03:57:52;6.90;73.40
20066;DHT22;10193;48.884;9.182;2022-11-23T04:00:19;6.90;73.40
20066;DHT22;10193;48.884;9.182;2022-11-23T04:02:46;6.90;73.40
20066;DHT22;10193;48.884;9.182;2022-11-23T04:05:13;6.90;73.40
20066;DHT22;10193;48.884;9.182;2022-11-23T04:07:39;7.00;73.60
20066;DHT22;10193;48.884;9.182;2022-11-23T04:10:08;7.00;73.60
20066;DHT22;10193;48.884;9.182;2022-11-23T04:12:35;7.00;73.70
20066;DHT22;10193;48.884;9.182;2022-11-23T04:15:02;7.00;73.70
20066;DHT22;10193;48.884;9.182;2022-11-23T04:17:28;7.00;73.70
20066;DHT22;10193;48.884;9.182;2022-11-23T04:19:55;7.00;73.70
20066;DHT22;10193;48.884;9.182;2022-11-23T04:22:22;7.00;73.70
20066;DHT22;10193;48.884;9.182;2022-11-23T04:24:48;7.10;73.80
20066;DHT22;10193;48.884;9.182;2022-11-23T04:27:16;7.10;73.70
20066;DHT22;10193;48.884;9.182;2022-11-23T04:29:43;7.10;73.60
20066;DHT22;10193;48.884;9.182;2022-11-23T04:32:09;7.10;73.60
20066;DHT22;10193;48.884;9.182;2022-11-23T04:34:36;7.10;73.60
20066;DHT22;10193;48.884;9.182;2022-11-23T04:37:03;7.10;73.60
20066;DHT22;10193;48.884;9.182;2022-11-23T04:39:29;7.10;73.50
20066;DHT22;10193;48.884;9.182;2022-11-23T04:41:56;7.20;73.60
20066;DHT22;10193;48.884;9.182;2022-11-23T04:44:24;7.10;73.50
20066;DHT22;10193;48.884;9.182;2022-11-23T04:46:51;7.10;73.60
20066;DHT22;10193;48.884;9.182;2022-11-23T04:49:17;7.20;73.60
20066;DHT22;10193;48.884;9.182;2022-11-23T04:51:44;7.10;73.50
20066;DHT22;10193;48.884;9.182;2022-11-23T04:54:10;7.20;73.50
20066;DHT22;10193;48.884;9.182;2022-11-23T04:56:37;7.20;73.40
20066;DHT22;10193;48.884;9.182;2022-11-23T04:59:04;7.20;73.30
20066;DHT22;10193;48.884;9.182;2022-11-23T05:01:33;7.20;73.10
20066;DHT22;10193;48.884;9.182;2022-11-23T05:03:59;7.20;72.90
20066;DHT22;10193;48.884;9.182;2022-11-23T05:06:26;7.20;72.70
20066;DHT22;10193;48.884;9.182;2022-11-23T05:08:52;7.10;72.40
20066;DHT22;10193;48.884;9.182;2022-11-23T05:11:19;7.10;72.30
20066;DHT22;10193;48.884;9.182;2022-11-23T05:13:46;7.10;72.20
20066;DHT22;10193;48.884;9.182;2022-11-23T05:16:12;7.00;72.20
20066;DHT22;10193;48.884;9.182;2022-11-23T05:18:40;7.00;72.10
20066;DHT22;10193;48.884;9.182;2022-11-23T05:21:07;7.00;72.10
20066;DHT22;10193;48.884;9.182;2022-11-23T05:23:34;7.00;72.30
20066;DHT22;10193;48.884;9.182;2022-11-23T05:26:00;6.90;72.20
20066;DHT22;10193;48.884;9.182;2022-11-23T05:28:27;6.90;72.40
20066;DHT22;10193;48.884;9.182;2022-11-23T05:30:54;6.90;72.50
20066;DHT22;10193;48.884;9.182;2022-11-23T05:33:20;6.90;72.60
20066;DHT22;10193;48.884;9.182;2022-11-23T05:35:48;6.80;72.70
20066;DHT22;10193;48.884;9.182;2022-11-23T05:38:15;6.80;72.80
20066;DHT22;10193;48.884;9.182;2022-11-23T05:40:44;6.80;73.00
20066;DHT22;10193;48.884;9.182;2022-11-23T05:43:10;6.80;73.10
20066;DHT22;10193;48.884;9.182;2022-11-23T05:45:37;6.80;73.20
20066;DHT22;10193;48.884;9.182;2022-11-23T05:48:04;6.80;73.30
20066;DHT22;10193;48.884;9.182;2022-11-23T05:50:31;6.80;73.40
20066;DHT22;10193;48.884;9.182;2022-11-23T05:52:59;6.80;73.50
20066;DHT22;10193;48.884;9.182;2022-11-23T05:55:26;6.90;73.60
20066;DHT22;10193;48.884;9.182;2022-11-23T05:57:53;6.90;73.70
20066;DHT22;10193;48.884;9.182;2022-11-23T06:00:20;6.90;73.70
20066;DHT22;10193;48.884;9.182;2022-11-23T06:02:46;6.90;73.70
20066;DHT22;10193;48.884;9.182;2022-11-23T06:05:13;6.90;73.80
20066;DHT22;10193;48.884;9.182;2022-11-23T06:07:40;6.90;73.80
20066;DHT22;10193;48.884;9.182;2022-11-23T06:10:09;7.00;73.90
20066;DHT22;10193;48.884;9.182;2022-11-23T06:12:36;7.00;73.90
20066;DHT22;10193;48.884;9.182;2022-11-23T06:15:04;7.00;73.90
20066;DHT22;10193;48.884;9.182;2022-11-23T06:17:30;7.00;73.90
20066;DHT22;10193;48.884;9.182;2022-11-23T06:19:57;7.10;73.90
20066;DHT22;10193;48.884;9.182;2022-11-23T06:22:24;7.10;73.90
20066;DHT22;10193;48.884;9.182;2022-11-23T06:24:50;7.10;73.80
20066;DHT22;10193;48.884;9.182;2022-11-23T06:27:18;7.10;73.90
20066;DHT22;10193;48.884;9.182;2022-11-23T06:29:45;7.10;73.80
20066;DHT22;10193;48.884;9.182;2022-11-23T06:32:12;7.10;73.80
20066;DHT22;10193;48.884;9.182;2022-11-23T06:34:39;7.20;73.80
20066;DHT22;10193;48.884;9.182;2022-11-23T06:37:05;7.20;73.80
20066;DHT22;10193;48.884;9.182;2022-11-23T06:39:32;7.20;73.80
20066;DHT22;10193;48.884;9.182;2022-11-23T06:41:59;7.20;73.80
20066;DHT22;10193;48.884;9.182;2022-11-23T06:44:27;7.30;73.90
20066;DHT22;10193;48.884;9.182;2022-11-23T06:46:53;7.30;74.00
20066;DHT22;10193;48.884;9.182;2022-11-23T06:49:20;7.30;73.90
20066;DHT22;10193;48.884;9.182;2022-11-23T06:51:46;7.30;73.90
20066;DHT22;10193;48.884;9.182;2022-11-23T06:54:13;7.30;73.90
20066;DHT22;10193;48.884;9.182;2022-11-23T06:56:40;7.40;74.00
20066;DHT22;10193;48.884;9.182;2022-11-23T06:59:06;7.40;74.00
20066;DHT22;10193;48.884;9.182;2022-11-23T07:01:34;7.40;74.00
20066;DHT22;10193;48.884;9.182;2022-11-23T07:04:01;7.40;74.00
20066;DHT22;10193;48.884;9.182;2022-11-23T07:06:28;7.40;74.00
20066;DHT22;10193;48.884;9.182;2022-11-23T07:08:54;7.50;74.00
20066;DHT22;10193;48.884;9.182;2022-11-23T07:11:21;7.50;73.90
20066;DHT22;10193;48.884;9.182;2022-11-23T07:13:48;7.50;73.90
20066;DHT22;10193;48.884;9.182;2022-11-23T07:16:14;7.50;73.80
20066;DHT22;10193;48.884;9.182;2022-11-23T07:18:43;7.60;73.90
20066;DHT22;10193;48.884;9.182;2022-11-23T07:21:10;7.60;73.80
20066;DHT22;10193;48.884;9.182;2022-11-23T07:23:36;7.60;73.80
20066;DHT22;10193;48.884;9.182;2022-11-23T07:26:06;7.60;73.80
20066;DHT22;10193;48.884;9.182;2022-11-23T07:28:32;7.60;73.80
20066;DHT22;10193;48.884;9.182;2022-11-23T07:30:59;7.60;73.70
20066;DHT22;10193;48.884;9.182;2022-11-23T07:33:26;7.70;73.80
20066;DHT22;10193;48.884;9.182;2022-11-23T07:35:54;7.70;73.80
20066;DHT22;10193;48.884;9.182;2022-11-23T07:38:20;7.70;73.80
20066;DHT22;10193;48.884;9.182;2022-11-23T07:40:48;7.70;73.70
20066;DHT22;10193;48.884;9.182;2022-11-23T07:43:16;7.70;73.70
20066;DHT22;10193;48.884;9.182;2022-11-23T07:45:42;7.70;73.80
20066;DHT22;10193;48.884;9.182;2022-11-23T07:48:09;7.80;73.80
20066;DHT22;10193;48.884;9.182;2022-11-23T07:50:37;7.80;73.90
20066;DHT22;10193;48.884;9.182;2022-11-23T07:53:06;7.80;74.80
20066;DHT22;10193;48.884;9.182;2022-11-23T07:55:33;7.80;74.00
20066;DHT22;10193;48.884;9.182;2022-11-23T07:58:00;7.90;74.10
20066;DHT22;10193;48.884;9.182;2022-11-23T08:00:27;7.90;74.00
20066;DHT22;10193;48.884;9.182;2022-11-23T08:02:56;7.90;74.00
20066;DHT22;10193;48.884;9.182;2022-11-23T08:05:23;8.00;74.10
20066;DHT22;10193;48.884;9.182;2022-11-23T08:07:50;8.00;74.00
20066;DHT22;10193;48.884;9.182;2022-11-23T08:10:19;8.00;74.00
20066;DHT22;10193;48.884;9.182;2022-11-23T08:12:45;8.10;74.10
20066;DHT22;10193;48.884;9.182;2022-11-23T08:15:12;8.10;74.00
20066;DHT22;10193;48.884;9.182;2022-11-23T08:17:38;8.20;74.20
20066;DHT22;10193;48.884;9.182;2022-11-23T08:20:06;8.20;74.20
20066;DHT22;10193;48.884;9.182;2022-11-23T08:22:33;8.20;74.50
20066;DHT22;10193;48.884;9.182;2022-11-23T08:24:59;8.30;74.60
20066;DHT22;10193;48.884;9.182;2022-11-23T08:27:27;8.40;74.80
20066;DHT22;10193;48.884;9.182;2022-11-23T08:29:54;8.40;74.70
20066;DHT22;10193;48.884;9.182;2022-11-23T08:32:20;8.50;74.70
20066;DHT22;10193;48.884;9.182;2022-11-23T08:34:47;8.50;74.50
20066;DHT22;10193;48.884;9.182;2022-11-23T08:37:14;8.60;74.50
20066;DHT22;10193;48.884;9.182;2022-11-23T08:39:40;8.70;74.60
20066;DHT22;10193;48.884;9.182;2022-11-23T08:42:07;8.70;74.60
20066;DHT22;10193;48.884;9.182;2022-11-23T08:44:35;8.80;74.50
20066;DHT22;10193;48.884;9.182;2022-11-23T08:47:02;8.80;74.20
20066;DHT22;10193;48.884;9.182;2022-11-23T08:49:28;8.90;74.20
20066;DHT22;10193;48.884;9.182;2022-11-23T08:51:55;8.90;74.00
20066;DHT22;10193;48.884;9.182;2022-11-23T08:54:22;9.00;74.10
20066;DHT22;10193;48.884;9.182;2022-11-23T08:56:49;9.10;74.10
20066;DHT22;10193;48.884;9.182;2022-11-23T08:59:16;9.10;74.10
20066;DHT22;10193;48.884;9.182;2022-11-23T09:01:44;9.10;74.00
20066;DHT22;10193;48.884;9.182;2022-11-23T09:04:11;9.20;74.10
20066;DHT22;10193;48.884;9.182;2022-11-23T09:06:38;9.20;74.00
20066;DHT22;10193;48.884;9.182;2022-11-23T09:09:04;9.30;74.00
20066;DHT22;10193;48.884;9.182;2022-11-23T09:11:31;9.30;73.70
20066;DHT22;10193;48.884;9.182;2022-11-23T09:13:57;9.30;73.30
20066;DHT22;10193;48.884;9.182;2022-11-23T09:16:24;9.40;73.20
20066;DHT22;10193;48.884;9.182;2022-11-23T09:18:55;9.40;73.00
20066;DHT22;10193;48.884;9.182;2022-11-23T09:21:22;9.40;72.80
20066;DHT22;10193;48.884;9.182;2022-11-23T09:23:54;9.40;72.70
20066;DHT22;10193;48.884;9.182;2022-11-23T09:26:20;9.40;72.70
20066;DHT22;10193;48.884;9.182;2022-11-23T09:28:47;9.40;72.50
20066;DHT22;10193;48.884;9.182;2022-11-23T09:31:14;9.50;72.60
20066;DHT22;10193;48.884;9.182;2022-11-23T09:33:40;9.50;72.60
20066;DHT22;10193;48.884;9.182;2022-11-23T09:36:08;9.50;72.60
20066;DHT22;10193;48.884;9.182;2022-11-23T09:38:35;9.50;72.50
20066;DHT22;10193;48.884;9.182;2022-11-23T09:41:15;9.50;72.60
20066;DHT22;10193;48.884;9.182;2022-11-23T09:43:50;9.50;72.40
20066;DHT22;10193;48.884;9.182;2022-11-23T09:46:29;9.60;72.60
20066;DHT22;10193;48.884;9.182;2022-11-23T09:49:08;9.60;72.50
20066;DHT22;10193;48.884;9.182;2022-11-23T09:51:38;9.60;72.40
20066;DHT22;10193;48.884;9.182;2022-11-23T09:54:15;9.60;72.40
20066;DHT22;10193;48.884;9.182;2022-11-23T09:56:46;9.60;72.30
20066;DHT22;10193;48.884;9.182;2022-11-23T09:59:22;9.70;72.30
20066;DHT22;10193;48.884;9.182;2022-11-23T10:01:51;9.70;72.20
20066;DHT22;10193;48.884;9.182;2022-11-23T10:04:19;9.70;72.30
20066;DHT22;10193;48.884;9.182;2022-11-23T10:06:51;9.70;72.20
20066;DHT22;10193;48.884;9.182;2022-11-23T10:09:27;9.80;72.30
20066;DHT22;10193;48.884;9.182;2022-11-23T10:12:15;9.70;72.20
20066;DHT22;10193;48.884;9.182;2022-11-23T10:14:52;9.80;72.20
20066;DHT22;10193;48.884;9.182;2022-11-23T10:17:28;9.80;72.10
20066;DHT22;10193;48.884;9.182;2022-11-23T10:20:18;9.90;72.20
20066;DHT22;10193;48.884;9.182;2022-11-23T10:22:56;9.90;72.20
20066;DHT22;10193;48.884;9.182;2022-11-23T10:25:24;9.90;72.90
20066;DHT22;10193;48.884;9.182;2022-11-23T10:27:56;10.00;71.00
20066;DHT22;10193;48.884;9.182;2022-11-23T10:30:24;10.00;70.80
20066;DHT22;10193;48.884;9.182;2022-11-23T10:32:55;10.10;70.90
20066;DHT22;10193;48.884;9.182;2022-11-23T10:35:27;10.10;70.80
20066;DHT22;10193;48.884;9.182;2022-11-23T10:38:09;10.10;70.60
20066;DHT22;10193;48.884;9.182;2022-11-23T10:40:38;10.20;70.40
20066;DHT22;10193;48.884;9.182;2022-11-23T10:43:11;10.20;70.70
20066;DHT22;10193;48.884;9.182;2022-11-23T10:45:40;10.20;70.60
20066;DHT22;10193;48.884;9.182;2022-11-23T10:48:06;10.20;70.60
20066;DHT22;10193;48.884;9.182;2022-11-23T10:50:35;10.20;70.50
20066;DHT22;10193;48.884;9.182;2022-11-23T10:53:18;10.30;70.60
20066;DHT22;10193;48.884;9.182;2022-11-23T10:55:49;10.30;70.00
20066;DHT22;10193;48.884;9.182;2022-11-23T10:58:24;10.30;70.50
20066;DHT22;10193;48.884;9.182;2022-11-23T11:00:58;10.30;70.10
20066;DHT22;10193;48.884;9.182;2022-11-23T11:03:30;10.40;70.20
20066;DHT22;10193;48.884;9.182;2022-11-23T11:05:57;10.40;70.20
20066;DHT22;10193;48.884;9.182;2022-11-23T11:08:28;10.40;70.40
20066;DHT22;10193;48.884;9.182;2022-11-23T11:10:58;10.50;70.30
20066;DHT22;10193;48.884;9.182;2022-11-23T11:13:27;10.50;70.40
20066;DHT22;10193;48.884;9.182;2022-11-23T11:15:56;10.50;70.40
20066;DHT22;10193;48.884;9.182;2022-11-23T11:18:29;10.50;70.30
20066;DHT22;10193;48.884;9.182;2022-11-23T11:20:59;10.50;70.20
20066;DHT22;10193;48.884;9.182;2022-11-23T11:23:29;10.60;70.40
20066;DHT22;10193;48.884;9.182;2022-11-23T11:26:05;10.60;70.20
20066;DHT22;10193;48.884;9.182;2022-11-23T11:28:35;10.60;69.70
20066;DHT22;10193;48.884;9.182;2022-11-23T11:31:20;10.70;70.00
20066;DHT22;10193;48.884;9.182;2022-11-23T11:33:53;10.70;69.70
20066;DHT22;10193;48.884;9.182;2022-11-23T11:36:21;10.70;70.00
20066;DHT22;10193;48.884;9.182;2022-11-23T11:38:54;10.80;70.10
20066;DHT22;10193;48.884;9.182;2022-11-23T11:41:21;10.70;69.70
20066;DHT22;10193;48.884;9.182;2022-11-23T11:43:54;10.90;69.80
20066;DHT22;10193;48.884;9.182;2022-11-23T11:46:24;10.90;69.80
20066;DHT22;10193;48.884;9.182;2022-11-23T11:48:57;10.90;69.70
20066;DHT22;10193;48.884;9.182;2022-11-23T11:51:28;11.00;69.80
20066;DHT22;10193;48.884;9.182;2022-11-23T11:54:03;11.00;69.60
20066;DHT22;10193;48.884;9.182;2022-11-23T11:56:37;11.10;69.30
20066;DHT22;10193;48.884;9.182;2022-11-23T11:59:12;11.10;69.40
20066;DHT22;10193;48.884;9.182;2022-11-23T12:01:43;11.10;68.90
20066;DHT22;10193;48.884;9.182;2022-11-23T12:04:17;11.20;68.90
20066;DHT22;10193;48.884;9.182;2022-11-23T12:06:51;11.20;69.00
20066;DHT22;10193;48.884;9.182;2022-11-23T12:09:25;11.30;69.10
20066;DHT22;10193;48.884;9.182;2022-11-23T12:11:56;11.30;68.90
20066;DHT22;10193;48.884;9.182;2022-11-23T12:14:23;11.40;68.90
20066;DHT22;10193;48.884;9.182;2022-11-23T12:16:54;11.40;68.50
20066;DHT22;10193;48.884;9.182;2022-11-23T12:19:28;11.40;68.00
20066;DHT22;10193;48.884;9.182;2022-11-23T12:22:17;11.40;67.70
20066;DHT22;10193;48.884;9.182;2022-11-23T12:25:01;11.40;67.50
20066;DHT22;10193;48.884;9.182;2022-11-23T12:27:40;11.50;67.40
20066;DHT22;10193;48.884;9.182;2022-11-23T12:30:16;11.40;67.30
20066;DHT22;10193;48.884;9.182;2022-11-23T12:33:04;11.40;67.20
20066;DHT22;10193;48.884;9.182;2022-11-23T12:35:51;11.40;66.70
20066;DHT22;10193;48.884;9.182;2022-11-23T12:38:28;11.40;66.40
20066;DHT22;10193;48.884;9.182;2022-11-23T12:44:00;11.40;66.80
20066;DHT22;10193;48.884;9.182;2022-11-23T12:46:36;11.40;66.90
20066;DHT22;10193;48.884;9.182;2022-11-23T12:49:14;11.40;66.80
20066;DHT22;10193;48.884;9.182;2022-11-23T12:51:51;11.40;66.70
20066;DHT22;10193;48.884;9.182;2022-11-23T12:54:31;11.40;66.30
20066;DHT22;10193;48.884;9.182;2022-11-23T12:57:09;11.40;66.10
20066;DHT22;10193;48.884;9.182;2022-11-23T12:59:42;11.40;66.50
20066;DHT22;10193;48.884;9.182;2022-11-23T13:02:22;11.50;66.50
20066;DHT22;10193;48.884;9.182;2022-11-23T13:05:33;11.40;66.20
20066;DHT22;10193;48.884;9.182;2022-11-23T13:11:11;11.50;66.00
20066;DHT22;10193;48.884;9.182;2022-11-23T13:14:06;11.50;65.90
20066;DHT22;10193;48.884;9.182;2022-11-23T13:16:53;11.50;65.30
20066;DHT22;10193;48.884;9.182;2022-11-23T13:19:33;11.50;65.60
20066;DHT22;10193;48.884;9.182;2022-11-23T13:22:05;11.50;65.80
20066;DHT22;10193;48.884;9.182;2022-11-23T13:24:33;11.50;65.70
20066;DHT22;10193;48.884;9.182;2022-11-23T13:27:28;11.50;65.90
20066;DHT22;10193;48.884;9.182;2022-11-23T13:29:56;11.50;65.00
20066;DHT22;10193;48.884;9.182;2022-11-23T13:32:50;11.50;65.80
20066;DHT22;10193;48.884;9.182;2022-11-23T13:35:55;11.50;65.20
20066;DHT22;10193;48.884;9.182;2022-11-23T13:38:41;11.60;65.20
20066;DHT22;10193;48.884;9.182;2022-11-23T13:44:18;11.50;65.20
20066;DHT22;10193;48.884;9.182;2022-11-23T13:46:56;11.50;65.30
20066;DHT22;10193;48.884;9.182;2022-11-23T13:49:41;11.50;65.20
20066;DHT22;10193;48.884;9.182;2022-11-23T13:52:27;11.50;64.70
20066;DHT22;10193;48.884;9.182;2022-11-23T13:55:17;11.40;64.60
20066;DHT22;10193;48.884;9.182;2022-11-23T13:58:30;11.50;64.80
20066;DHT22;10193;48.884;9.182;2022-11-23T14:00:46;11.40;65.30
20066;DHT22;10193;48.884;9.182;2022-11-23T14:03:47;11.40;64.70
20066;DHT22;10193;48.884;9.182;2022-11-23T14:06:20;11.40;64.80
20066;DHT22;10193;48.884;9.182;2022-11-23T14:08:51;11.40;65.20
20066;DHT22;10193;48.884;9.182;2022-11-23T14:11:21;11.40;65.30
20066;DHT22;10193;48.884;9.182;2022-11-23T14:13:52;11.40;65.10
20066;DHT22;10193;48.884;9.182;2022-11-23T14:16:36;11.30;65.10
20066;DHT22;10193;48.884;9.182;2022-11-23T14:19:19;11.40;64.80
20066;DHT22;10193;48.884;9.182;2022-11-23T14:21:54;11.30;64.80
20066;DHT22;10193;48.884;9.182;2022-11-23T14:24:37;11.30;65.00
20066;DHT22;10193;48.884;9.182;2022-11-23T14:27:21;11.30;64.40
20066;DHT22;10193;48.884;9.182;2022-11-23T14:30:04;11.30;64.90
20066;DHT22;10193;48.884;9.182;2022-11-23T14:32:41;11.30;64.20
20066;DHT22;10193;48.884;9.182;2022-11-23T14:35:24;11.30;64.70
20066;DHT22;10193;48.884;9.182;2022-11-23T14:38:06;11.30;64.80
20066;DHT22;10193;48.884;9.182;2022-11-23T14:40:47;11.30;64.50
20066;DHT22;10193;48.884;9.182;2022-11-23T14:43:17;11.30;64.40
20066;DHT22;10193;48.884;9.182;2022-11-23T14:45:45;11.40;64.90
20066;DHT22;10193;48.884;9.182;2022-11-23T14:48:19;11.40;64.60
20066;DHT22;10193;48.884;9.182;2022-11-23T14:50:54;11.30;64.30
20066;DHT22;10193;48.884;9.182;2022-11-23T14:53:23;11.30;64.00
20066;DHT22;10193;48.884;9.182;2022-11-23T14:55:50;11.30;64.40
20066;DHT22;10193;48.884;9.182;2022-11-23T14:58:17;11.30;64.40
20066;DHT22;10193;48.884;9.182;2022-11-23T15:00:44;11.20;64.10
20066;DHT22;10193;48.884;9.182;2022-11-23T15:03:14;11.20;64.10
20066;DHT22;10193;48.884;9.182;2022-11-23T15:05:43;11.20;63.90
20066;DHT22;10193;48.884;9.182;2022-11-23T15:08:15;11.20;63.80
20066;DHT22;10193;48.884;9.182;2022-11-23T15:10:47;11.10;63.70
20066;DHT22;10193;48.884;9.182;2022-11-23T15:13:22;11.10;63.70
20066;DHT22;10193;48.884;9.182;2022-11-23T15:15:50;11.10;63.60
20066;DHT22;10193;48.884;9.182;2022-11-23T15:18:28;11.00;63.70
20066;DHT22;10193;48.884;9.182;2022-11-23T15:20:57;11.00;63.20
20066;DHT22;10193;48.884;9.182;2022-11-23T15:23:32;10.90;63.60
20066;DHT22;10193;48.884;9.182;2022-11-23T15:26:01;10.90;63.60
20066;DHT22;10193;48.884;9.182;2022-11-23T15:28:29;10.90;63.60
20066;DHT22;10193;48.884;9.182;2022-11-23T15:30:58;10.90;63.70
20066;DHT22;10193;48.884;9.182;2022-11-23T15:33:25;10.80;63.40
20066;DHT22;10193;48.884;9.182;2022-11-23T15:35:52;10.80;63.60
20066;DHT22;10193;48.884;9.182;2022-11-23T15:38:20;10.70;63.30
20066;DHT22;10193;48.884;9.182;2022-11-23T15:40:49;10.70;63.30
20066;DHT22;10193;48.884;9.182;2022-11-23T15:43:18;10.70;63.30
20066;DHT22;10193;48.884;9.182;2022-11-23T15:46:02;10.60;63.40
20066;DHT22;10193;48.884;9.182;2022-11-23T15:48:32;10.50;62.80
20066;DHT22;10193;48.884;9.182;2022-11-23T15:51:01;10.50;63.50
20066;DHT22;10193;48.884;9.182;2022-11-23T15:53:29;10.40;63.30
20066;DHT22;10193;48.884;9.182;2022-11-23T15:56:00;10.40;63.40
20066;DHT22;10193;48.884;9.182;2022-11-23T15:58:27;10.30;63.30
20066;DHT22;10193;48.884;9.182;2022-11-23T16:00:58;10.40;63.60
20066;DHT22;10193;48.884;9.182;2022-11-23T16:03:33;10.30;63.60
20066;DHT22;10193;48.884;9.182;2022-11-23T16:06:18;10.20;63.40
20066;DHT22;10193;48.884;9.182;2022-11-23T16:08:45;10.20;63.20